Terminal Aerodrome Forecast
Issued by NWS

Home | Current Version | Previous Version | Text Only | Print | Product List | Glossary On
Versions: 1 2 3 4 5 6 7 8 9 10 11 12 13 14 15 16 17 18 19 20 21
000
FTUS41 KBGM 201130
TAFITH
TAF
KITH 201130Z 2012/2112 27011G18KT P6SM BKN050
     FM202100 24009KT P6SM SCT060
     FM210200 20009KT P6SM SKC
     FM210700 18008KT P6SM SKC WS020/23039KT=

USA.gov is the U.S. government's official web portal to all federal, state and local government web resources and services.